Time;durP1;ratioP1;P1;durP2;ratioP2;P2;SDS_P1;SDS_P2;PMS_P1;PMS_P2;Temp;Humidity;BMP_temperature;BMP_pressure;BME280_temperature;BME280_humidity;BME280_pressure;Samples;Min_cycle;Max_cycle;Signal;HPM_P1;HPM_P2
2022/04/17 00:00:28;;;;;;;20.10;11.85;;;;;;;;;;4979126;28;20495;-86
2022/04/17 00:02:55;;;;;;;16.70;10.90;;;;;;;;;;4979246;28;20039;-81
2022/04/17 00:05:21;;;;;;;17.70;12.18;;;;;;;;;;4963134;28;20047;-86
2022/04/17 00:07:47;;;;;;;21.42;11.93;;;;;;;;;;4980629;28;20418;-89
2022/04/17 00:10:13;;;;;;;31.10;16.52;;;;;;;;;;4979801;28;20420;-83
2022/04/17 00:12:39;;;;;;;36.72;18.52;;;;;;;;;;4978916;28;20046;-83
2022/04/17 00:15:06;;;;;;;21.42;14.82;;;;;;;;;;4962255;28;20061;-88
2022/04/17 00:17:37;;;;;;;24.63;14.85;;;;;;;;;;4979126;28;20043;-84
2022/04/17 00:20:04;;;;;;;18.73;14.43;;;;;;;;;;4962795;28;20047;-89
2022/04/17 00:22:33;;;;;;;19.15;13.95;;;;;;;;;;4961523;28;20077;-82
2022/04/17 00:25:01;;;;;;;20.85;14.00;;;;;;;;;;4961484;28;20046;-81
2022/04/17 00:27:27;;;;;;;26.75;14.80;;;;;;;;;;4977220;28;20349;-79
2022/04/17 00:29:53;;;;;;;22.33;17.35;;;;;;;;;;4960745;28;20089;-79
2022/04/17 00:32:19;;;;;;;25.77;18.13;;;;;;;;;;4981950;23;20043;-81
2022/04/17 00:34:45;;;;;;;25.98;19.08;;;;;;;;;;4960596;28;20050;-80
2022/04/17 00:37:11;;;;;;;28.30;19.92;;;;;;;;;;4960847;28;20057;-79
2022/04/17 00:39:39;;;;;;;25.75;18.60;;;;;;;;;;4960671;28;20046;-84
2022/04/17 00:42:07;;;;;;;27.00;19.55;;;;;;;;;;4960828;28;20101;-85
2022/04/17 00:44:33;;;;;;;23.27;19.50;;;;;;;;;;4959725;28;20043;-85
2022/04/17 00:46:59;;;;;;;28.13;20.65;;;;;;;;;;4975392;28;20097;-86
2022/04/17 00:49:25;;;;;;;25.02;20.25;;;;;;;;;;4959101;28;20491;-89
2022/04/17 00:51:51;;;;;;;33.35;23.15;;;;;;;;;;4922069;29;20409;-90
2022/04/17 00:54:21;;;;;;;28.00;20.27;;;;;;;;;;4903837;29;20088;-91
2022/04/17 00:56:51;;;;;;;33.85;21.63;;;;;;;;;;4913380;29;20052;-91
2022/04/17 00:59:18;;;;;;;33.33;21.17;;;;;;;;;;4922073;29;20153;-91
2022/04/17 01:01:44;;;;;;;31.17;22.13;;;;;;;;;;4921507;29;20055;-91
2022/04/17 01:04:10;;;;;;;28.95;21.00;;;;;;;;;;4920820;29;20146;-85
2022/04/17 01:06:41;;;;;;;29.25;21.10;;;;;;;;;;4920471;29;20164;-83
2022/04/17 01:09:07;;;;;;;33.40;20.63;;;;;;;;;;4919605;29;20102;-80
2022/04/17 01:11:38;;;;;;;27.35;20.52;;;;;;;;;;4920639;29;20051;-89
2022/04/17 01:14:05;;;;;;;31.73;21.52;;;;;;;;;;4921525;29;20457;-80
2022/04/17 01:16:31;;;;;;;29.38;20.65;;;;;;;;;;4903951;29;20496;-81
2022/04/17 01:19:03;;;;;;;31.58;23.38;;;;;;;;;;4920241;29;20577;-86
2022/04/17 01:21:32;;;;;;;34.42;21.23;;;;;;;;;;4903993;29;20574;-85
2022/04/17 01:26:57;;;;;;;;;;;;;;;;;;4937122;29;20062;-86
2022/04/17 01:29:26;;;;;;;35.40;21.80;;;;;;;;;;4946639;29;19930;-84
2022/04/17 01:31:53;;;;;;;35.97;20.70;;;;;;;;;;4966230;28;20431;-85
2022/04/17 01:34:20;;;;;;;24.33;20.13;;;;;;;;;;4977529;28;20060;-87
2022/04/17 01:36:47;;;;;;;29.38;19.58;;;;;;;;;;4995166;28;20046;-86
2022/04/17 01:39:13;;;;;;;30.08;20.42;;;;;;;;;;4995398;28;20074;-85
2022/04/17 01:41:39;;;;;;;23.50;18.40;;;;;;;;;;4995302;28;20046;-89
2022/04/17 01:44:06;;;;;;;25.33;19.08;;;;;;;;;;4978023;28;20478;-85
2022/04/17 01:46:33;;;;;;;24.63;18.85;;;;;;;;;;4995035;28;20069;-87
2022/04/17 01:48:59;;;;;;;24.58;19.45;;;;;;;;;;4996022;28;20058;-89
2022/04/17 01:51:25;;;;;;;28.17;19.38;;;;;;;;;;4995476;28;20534;-79
2022/04/17 01:53:51;;;;;;;26.58;19.00;;;;;;;;;;4994943;28;20491;-88
2022/04/17 01:56:17;;;;;;;30.50;21.00;;;;;;;;;;4994695;28;20045;-87
2022/04/17 01:58:44;;;;;;;24.45;18.48;;;;;;;;;;4946726;28;20042;-89
2022/04/17 02:01:10;;;;;;;26.58;20.10;;;;;;;;;;4977873;28;20046;-88
2022/04/17 02:03:36;;;;;;;20.35;16.85;;;;;;;;;;4962428;28;20105;-87
2022/04/17 02:06:02;;;;;;;21.17;15.07;;;;;;;;;;4979018;28;20042;-86
2022/04/17 02:08:28;;;;;;;19.55;15.27;;;;;;;;;;4979036;28;20078;-87
2022/04/17 02:10:55;;;;;;;16.58;14.00;;;;;;;;;;4979470;28;20054;-82
2022/04/17 02:13:22;;;;;;;21.20;13.70;;;;;;;;;;4995278;28;20044;-86
2022/04/17 02:15:53;;;;;;;16.00;13.45;;;;;;;;;;4961497;28;20081;-84
2022/04/17 02:18:24;;;;;;;17.35;13.40;;;;;;;;;;4978116;28;20105;-88
2022/04/17 02:20:50;;;;;;;16.85;11.80;;;;;;;;;;4978067;28;20057;-87
2022/04/17 02:23:16;;;;;;;19.20;11.85;;;;;;;;;;4978702;28;20038;-88
2022/04/17 02:25:42;;;;;;;19.58;13.05;;;;;;;;;;4978327;28;20038;-87
2022/04/17 02:28:08;;;;;;;19.08;11.88;;;;;;;;;;4962351;28;20043;-87
2022/04/17 02:30:34;;;;;;;14.38;11.10;;;;;;;;;;4961403;28;20046;-80
2022/04/17 02:33:00;;;;;;;17.90;11.85;;;;;;;;;;4974137;28;20073;-78
2022/04/17 02:35:26;;;;;;;13.82;10.65;;;;;;;;;;4973527;28;20091;-82
2022/04/17 02:37:52;;;;;;;15.45;11.05;;;;;;;;;;4975323;28;20054;-79
2022/04/17 02:40:18;;;;;;;15.30;11.48;;;;;;;;;;4975497;28;20046;-80
2022/04/17 02:42:44;;;;;;;14.35;11.20;;;;;;;;;;4959013;28;20496;-79
2022/04/17 02:45:11;;;;;;;16.02;11.38;;;;;;;;;;4986005;23;20057;-81
2022/04/17 02:47:42;;;;;;;17.90;11.95;;;;;;;;;;5000306;28;20056;-85
2022/04/17 02:50:09;;;;;;;13.35;9.63;;;;;;;;;;5000014;28;20049;-87
2022/04/17 02:52:35;;;;;;;13.65;9.88;;;;;;;;;;4999202;23;20045;-85
2022/04/17 02:55:01;;;;;;;13.20;9.60;;;;;;;;;;4996112;28;20133;-85
2022/04/17 02:57:28;;;;;;;14.48;10.73;;;;;;;;;;4992860;28;20042;-85
2022/04/17 02:59:54;;;;;;;13.10;10.07;;;;;;;;;;4964328;28;20053;-85
2022/04/17 03:07:50;;;;;;;13.80;10.75;;;;;;;;;;4984565;28;20523;-90
2022/04/17 03:10:19;;;;;;;15.15;10.52;;;;;;;;;;4981134;28;20038;-90
2022/04/17 03:12:45;;;;;;;12.00;9.35;;;;;;;;;;4980295;28;20038;-91
2022/04/17 03:15:12;;;;;;;13.20;9.15;;;;;;;;;;4980415;28;20053;-91
2022/04/17 03:17:38;;;;;;;12.30;9.10;;;;;;;;;;4981285;28;20045;-90
2022/04/17 03:20:05;;;;;;;9.52;8.13;;;;;;;;;;4996181;28;20045;-91
2022/04/17 03:22:33;;;;;;;11.50;8.75;;;;;;;;;;4987192;28;20042;-91
2022/04/17 03:25:07;;;;;;;10.57;8.57;;;;;;;;;;4982280;28;20042;-91
2022/04/17 03:27:33;;;;;;;10.38;6.90;;;;;;;;;;4982247;28;20406;-90
2022/04/17 03:29:59;;;;;;;12.25;8.02;;;;;;;;;;5006323;28;20096;-91
2022/04/17 03:32:25;;;;;;;14.15;7.85;;;;;;;;;;4994789;28;20077;-93
2022/04/17 03:34:51;;;;;;;9.27;7.53;;;;;;;;;;4984581;28;20052;-89
2022/04/17 03:37:17;;;;;;;11.40;7.72;;;;;;;;;;4984782;28;20048;-90
2022/04/17 03:39:45;;;;;;;9.82;7.55;;;;;;;;;;4984725;28;20054;-90
2022/04/17 03:42:11;;;;;;;11.18;7.18;;;;;;;;;;5001583;28;20042;-92
2022/04/17 03:44:38;;;;;;;12.25;7.00;;;;;;;;;;5018415;28;20522;-92
2022/04/17 03:47:06;;;;;;;10.82;7.97;;;;;;;;;;5018749;28;20058;-91
2022/04/17 03:49:36;;;;;;;8.52;7.72;;;;;;;;;;5018924;28;20038;-92
2022/04/17 03:52:02;;;;;;;9.80;7.38;;;;;;;;;;5018044;28;20050;-92
2022/04/17 03:54:37;;;;;;;9.35;7.53;;;;;;;;;;4999425;28;20502;-91
2022/04/17 03:57:03;;;;;;;10.20;7.40;;;;;;;;;;4983543;28;20414;-86
2022/04/17 03:59:31;;;;;;;11.52;7.35;;;;;;;;;;4983722;28;20045;-89
2022/04/17 04:01:58;;;;;;;10.25;7.55;;;;;;;;;;4983629;28;20060;-90
2022/04/17 04:04:24;;;;;;;10.68;7.32;;;;;;;;;;4983362;28;20088;-83
2022/04/17 04:06:50;;;;;;;15.77;7.22;;;;;;;;;;4963915;28;20046;-88
2022/04/17 04:09:17;;;;;;;11.70;7.82;;;;;;;;;;4996429;28;20046;-86
2022/04/17 04:11:44;;;;;;;9.18;7.22;;;;;;;;;;4963933;28;20047;-83
2022/04/17 04:14:10;;;;;;;12.23;8.43;;;;;;;;;;5026670;23;20053;-87
2022/04/17 04:16:37;;;;;;;10.07;7.43;;;;;;;;;;5022686;28;20056;-88
2022/04/17 04:19:05;;;;;;;11.05;7.22;;;;;;;;;;5023859;28;20049;-82
2022/04/17 04:21:31;;;;;;;9.70;7.60;;;;;;;;;;5024297;28;20040;-90
2022/04/17 04:23:57;;;;;;;10.32;7.95;;;;;;;;;;5024545;28;20045;-90
2022/04/17 04:26:23;;;;;;;9.45;7.72;;;;;;;;;;5024347;28;20045;-88
2022/04/17 04:28:49;;;;;;;10.48;7.55;;;;;;;;;;5025041;28;20041;-89
2022/04/17 04:31:15;;;;;;;10.70;7.55;;;;;;;;;;5024346;28;20045;-87
2022/04/17 04:33:43;;;;;;;7.85;6.88;;;;;;;;;;5023764;28;20079;-88
2022/04/17 04:36:11;;;;;;;10.73;7.25;;;;;;;;;;5023520;28;20094;-91
2022/04/17 04:38:37;;;;;;;9.95;7.32;;;;;;;;;;5022925;28;20126;-92
2022/04/17 04:41:29;;;;;;;10.30;7.97;;;;;;;;;;5024668;28;20523;-91
2022/04/17 04:43:55;;;;;;;14.20;7.63;;;;;;;;;;5022893;28;20490;-93
2022/04/17 04:46:22;;;;;;;11.48;7.63;;;;;;;;;;5022387;28;20052;-93
2022/04/17 04:51:34;;;;;;;9.90;7.82;;;;;;;;;;5038753;28;20501;-92
2022/04/17 04:54:02;;;;;;;13.68;7.85;;;;;;;;;;5022368;28;20045;-90
2022/04/17 04:56:28;;;;;;;12.65;7.80;;;;;;;;;;5022432;28;20040;-92
2022/04/17 04:58:57;;;;;;;9.20;7.30;;;;;;;;;;5038842;28;20048;-91
2022/04/17 05:01:28;;;;;;;13.43;8.85;;;;;;;;;;5012070;28;20048;-92
2022/04/17 05:03:59;;;;;;;13.27;8.57;;;;;;;;;;5022384;28;20048;-91
2022/04/17 05:06:25;;;;;;;10.63;8.35;;;;;;;;;;5020390;28;20041;-90
2022/04/17 05:08:52;;;;;;;13.82;8.02;;;;;;;;;;5038028;28;20036;-92
2022/04/17 05:11:19;;;;;;;8.73;7.47;;;;;;;;;;5014107;28;20098;-92
2022/04/17 05:13:45;;;;;;;10.50;7.82;;;;;;;;;;5052179;28;20049;-90
2022/04/17 05:16:19;;;;;;;11.35;8.48;;;;;;;;;;5032777;28;20409;-92
2022/04/17 05:18:48;;;;;;;10.32;7.80;;;;;;;;;;5057160;28;20041;-93
2022/04/17 05:21:15;;;;;;;14.40;9.23;;;;;;;;;;5056426;28;20175;-93
2022/04/17 05:23:43;;;;;;;13.18;8.48;;;;;;;;;;5059100;28;20039;-93
2022/04/17 05:26:17;;;;;;;11.73;8.95;;;;;;;;;;5058078;28;20073;-93
2022/04/17 05:28:46;;;;;;;10.50;8.35;;;;;;;;;;5038116;28;20040;-79
2022/04/17 05:31:12;;;;;;;11.07;7.97;;;;;;;;;;5047891;28;20129;-90
2022/04/17 05:33:38;;;;;;;10.30;7.72;;;;;;;;;;5047243;28;20037;-90
2022/04/17 05:36:04;;;;;;;11.98;8.43;;;;;;;;;;5056314;28;20060;-89
2022/04/17 05:38:30;;;;;;;10.32;8.13;;;;;;;;;;5027720;23;20038;-88
2022/04/17 05:40:57;;;;;;;12.10;8.45;;;;;;;;;;5009182;28;20050;-90
2022/04/17 05:43:23;;;;;;;10.90;8.50;;;;;;;;;;5011346;28;20040;-79
2022/04/17 05:45:49;;;;;;;10.88;8.63;;;;;;;;;;5015444;23;20445;-85
2022/04/17 05:48:15;;;;;;;11.05;7.72;;;;;;;;;;4976890;28;20054;-86
2022/04/17 05:50:42;;;;;;;12.23;8.98;;;;;;;;;;4973283;28;20050;-82
2022/04/17 05:53:08;;;;;;;12.07;8.73;;;;;;;;;;4988574;28;20048;-88
2022/04/17 05:55:37;;;;;;;12.52;8.38;;;;;;;;;;4978030;28;20054;-88
2022/04/17 05:58:04;;;;;;;11.40;8.10;;;;;;;;;;4974734;28;20042;-81
2022/04/17 06:00:30;;;;;;;12.98;8.65;;;;;;;;;;4989519;28;20521;-89
2022/04/17 06:02:56;;;;;;;11.05;7.88;;;;;;;;;;4976369;28;20041;-90
2022/04/17 06:05:22;;;;;;;9.20;7.95;;;;;;;;;;4969223;28;20453;-89
2022/04/17 06:07:48;;;;;;;9.40;8.00;;;;;;;;;;4989406;28;20395;-87
2022/04/17 06:10:15;;;;;;;11.73;8.77;;;;;;;;;;4978912;28;20052;-91
2022/04/17 06:12:41;;;;;;;11.40;8.60;;;;;;;;;;4970290;28;20101;-88
2022/04/17 06:15:08;;;;;;;13.13;9.93;;;;;;;;;;4962180;28;20046;-89
2022/04/17 06:17:43;;;;;;;13.25;9.02;;;;;;;;;;4962229;28;20209;-87
2022/04/17 06:20:11;;;;;;;11.75;8.98;;;;;;;;;;4957441;28;20046;-82
2022/04/17 06:22:37;;;;;;;12.63;8.70;;;;;;;;;;5024251;23;20410;-84
2022/04/17 06:25:05;;;;;;;12.30;9.10;;;;;;;;;;5006905;23;20084;-85
2022/04/17 06:27:40;;;;;;;11.73;9.65;;;;;;;;;;4997058;23;20050;-88
2022/04/17 06:30:07;;;;;;;12.65;9.35;;;;;;;;;;5006204;23;20507;-88
2022/04/17 06:32:34;;;;;;;16.63;8.75;;;;;;;;;;4990035;23;20050;-81
2022/04/17 06:35:00;;;;;;;12.57;9.02;;;;;;;;;;4978469;23;20086;-82
2022/04/17 06:37:45;;;;;;;10.60;8.65;;;;;;;;;;4988392;23;20046;-84
2022/04/17 06:40:11;;;;;;;;;;;6.20;99.90;;;;;;5015362;23;20050;-84
2022/04/17 06:42:46;;;;;;;11.43;8.70;;;;;;;;;;5011931;23;19921;-86
2022/04/17 06:54:39;;;;;;;10.03;7.53;;;7.00;99.90;;;;;;5949353;23;20043;-85
2022/04/17 06:57:05;;;;;;;16.42;9.07;;;;;;;;;;4892940;23;20541;-86
2022/04/17 07:09:10;;;;;;;14.80;8.57;;;;;;;;;;5427065;24;20294;-84
2022/04/17 07:11:36;;;;;;;12.93;8.43;;;;;;;;;;4802151;24;20152;-82
2022/04/17 07:14:06;;;;;;;10.52;8.20;;;;;;;;;;4736402;24;20067;-87
2022/04/17 07:16:32;;;;;;;12.23;8.82;;;;;;;;;;4740696;24;20094;-87
2022/04/17 07:18:58;;;;;;;9.68;7.88;;;;;;;;;;4739967;30;20112;-85
2022/04/17 07:21:27;;;;;;;12.65;7.93;;;;;;;;;;4742039;24;20080;-87
2022/04/17 07:23:54;;;;;;;12.15;8.52;;;;;;;;;;4728463;24;20114;-87
2022/04/17 08:25:36;;;;;;;;;;;;;;;;;;;;;
2022/04/17 08:57:50;;;;;;;7.75;6.35;;;;;;;;;;4694356;30;20514;-89
2022/04/17 09:00:44;;;;;;;11.65;6.63;;;;;;;;;;4621928;30;20062;-90
2022/04/17 09:03:28;;;;;;;8.55;6.25;;;;;;;;;;4620859;30;20057;-90
2022/04/17 09:06:35;;;;;;;;;;;;;;;;;;;;;
2022/04/17 09:12:46;;;;;;;10.85;6.00;;;;;;;;;;4626598;30;20558;-90
2022/04/17 09:15:39;;;;;;;;;;;;;;;;;;;;;
2022/04/17 09:18:20;;;;;;;8.35;6.32;;;;;;;;;;4631967;31;20470;-90
2022/04/17 09:21:04;;;;;;;7.20;6.47;;;;;;;;;;4616314;31;20058;-90
2022/04/17 09:23:50;;;;;;;7.78;5.65;;;;;;;;;;4631059;31;20070;-89
2022/04/17 09:26:38;;;;;;;6.80;5.68;;;;;;;;;;4601743;31;20059;-89
2022/04/17 09:29:30;;;;;;;13.63;6.00;;;;;;;;;;4601895;31;20474;-90
2022/04/17 09:32:16;;;;;;;8.52;5.93;;;;;;;;;;4606383;31;20144;-89
2022/04/17 09:34:49;;;;;;;10.65;5.60;;;;;;;;;;4660589;30;20073;-89
2022/04/17 09:37:35;;;;;;;10.88;6.30;;;;;;;;;;4685354;30;20069;-91
2022/04/17 09:40:39;;;;;;;;;;;;;;;;;;4875193;24;20064;-91
2022/04/17 09:43:47;;;;;;;9.40;5.10;;;;;;;;;;4739334;30;19926;-91
2022/04/17 09:48:53;;;;;;;10.27;6.35;;;;;;;;;;4753163;24;19927;-92
2022/04/17 09:51:32;;;;;;;7.70;5.63;;;;;;;;;;4732414;24;20091;-92
2022/04/17 09:54:08;;;;;;;8.13;5.80;;;;;;;;;;4704139;30;20221;-92
2022/04/17 09:57:06;;;;;;;7.07;5.78;;;;;;;;;;4698985;30;20115;-93
2022/04/17 10:18:54;;;;;;;;;;;;;;;;;;;;;
2022/04/17 10:24:00;;;;;;;6.97;5.43;;;;;;;;;;4798299;24;20060;-92
2022/04/17 10:26:27;;;;;;;10.40;6.57;;;;;;;;;;4760644;30;20505;-86
2022/04/17 10:28:57;;;;;;;12.35;5.95;;;;;;;;;;4747100;30;20138;-89
2022/04/17 10:31:28;;;;;;;8.82;6.85;;;;;;;;;;4748467;30;20059;-90
2022/04/17 10:34:20;;;;;;;8.60;6.40;;;;;;;;;;4746424;30;20121;-89
2022/04/17 10:37:20;;;;;;;6.95;5.90;;;;;;;;;;4742587;30;20080;-88
2022/04/17 10:40:08;;;;;;;10.23;6.72;;;;;;;;;;4730107;30;20052;-90
2022/04/17 10:43:12;;;;;;;8.88;6.28;;;;;;;;;;4737610;30;20058;-91
2022/04/17 10:46:33;;;;;;;8.00;5.90;;;14.40;99.90;;;;;;4763453;30;20052;-91
2022/04/17 10:52:59;;;;;;;5.70;5.20;;;;;;;;;;4695078;30;20054;-88
2022/04/17 10:55:37;;;;;;;;;;;;;;;;;;;;;
2022/04/17 10:58:48;;;;;;;9.15;5.45;;;14.60;99.90;;;;;;4686190;30;20066;-90
2022/04/17 11:01:44;;;;;;;7.07;5.82;;;14.40;99.90;;;;;;4688073;30;20058;-91
2022/04/17 11:05:10;;;;;;;6.90;5.88;;;;;;;;;;4684888;30;20062;-92
2022/04/17 11:10:41;;;;;;;7.53;5.68;;;14.70;99.90;;;;;;4893147;24;20127;-90
2022/04/17 11:13:52;;;;;;;6.65;5.05;;;14.90;99.90;;;;;;4722088;30;20059;-90
2022/04/17 11:16:25;;;;;;;5.38;4.85;;;;;;;;;;4740831;30;20147;-90
2022/04/17 11:18:54;;;;;;;6.00;4.57;;;;;;;;;;4725032;30;20155;-90
2022/04/17 11:21:50;;;;;;;;;;;;;;;;;;;;;
2022/04/17 11:24:21;;;;;;;6.43;4.65;;;;;;;;;;4731176;30;20067;-89
2022/04/17 11:26:53;;;;;;;5.88;4.90;;;;;;;;;;4739362;30;20067;-91
2022/04/17 11:30:14;;;;;;;6.25;4.95;;;15.20;99.90;;;;;;4725250;30;20518;-90
2022/04/17 11:32:47;;;;;;;12.20;4.65;;;;;;;;;;4735998;30;20422;-90
2022/04/17 11:35:20;;;;;;;5.93;4.83;;;;;;;;;;4724849;30;20084;-89
2022/04/17 11:38:26;;;;;;;5.93;5.07;;;;;;;;;;4740265;30;20137;-88
2022/04/17 11:41:21;;;;;;;5.40;4.38;;;;;;;;;;4737462;30;20071;-91
2022/04/17 11:44:08;;;;;;;9.00;5.30;;;;;;;;;;4722116;30;20135;-89
2022/04/17 11:46:53;;;;;;;7.03;5.05;;;;;;;;;;4722957;30;20111;-90
2022/04/17 11:49:32;;;;;;;7.30;4.78;;;;;;;;;;4678293;30;20163;-89
2022/04/17 11:52:18;;;;;;;4.55;3.75;;;;;;;;;;4682844;30;20066;-91
2022/04/17 11:54:45;;;;;;;6.63;4.22;;;;;;;;;;4661178;30;20061;-90
2022/04/17 11:57:12;;;;;;;7.20;3.17;;;;;;;;;;4695843;30;20534;-90
2022/04/17 11:59:52;;;;;;;89.95;9.73;;;;;;;;;;4672784;30;20074;-92
2022/04/17 12:02:34;;;;;;;5.32;3.35;;;16.10;99.90;;;;;;4679750;30;20406;-92
2022/04/17 12:05:17;;;;;;;3.40;3.10;;;;;;;;;;4655850;30;20124;-91
2022/04/17 12:07:55;;;;;;;4.30;2.92;;;;;;;;;;4654862;30;20101;-91
2022/04/17 12:10:22;;;;;;;4.15;3.13;;;16.30;99.90;;;;;;4680957;30;20050;-89
2022/04/17 12:12:48;;;;;;;4.07;2.75;;;;;;;;;;4708744;30;20559;-90
2022/04/17 12:15:15;;;;;;;4.43;2.92;;;16.40;99.90;;;;;;4688251;30;20430;-91
2022/04/17 12:17:42;;;;;;;5.88;4.90;;;16.40;99.90;;;;;;4690236;30;20056;-91
2022/04/17 12:20:08;;;;;;;4.93;3.22;;;;;;;;;;4705583;30;20113;-91
2022/04/17 12:22:35;;;;;;;7.28;3.80;;;16.40;99.90;;;;;;4714271;30;20096;-89
2022/04/17 12:25:02;;;;;;;4.32;3.63;;;;;;;;;;4734122;30;20126;-90
2022/04/17 12:27:28;;;;;;;4.80;3.03;;;;;;;;;;4738356;30;20414;-95
2022/04/17 12:29:57;;;;;;;6.13;3.92;;;;;;;;;;4709511;30;20136;-88
2022/04/17 12:32:23;;;;;;;4.30;2.90;;;;;;;;;;4720947;30;20064;-92
2022/04/17 12:35:00;;;;;;;4.40;3.20;;;17.00;99.90;;;;;;4723766;30;20529;-87
2022/04/17 12:37:30;;;;;;;5.55;4.00;;;16.70;99.90;;;;;;4723359;30;20110;-88
2022/04/17 12:40:13;;;;;;;4.43;3.80;;;16.80;99.90;;;;;;4742864;30;20049;-91
2022/04/17 12:42:42;;;;;;;5.30;4.13;;;16.80;99.90;;;;;;4752874;30;20056;-88
2022/04/17 12:45:09;;;;;;;4.95;3.78;;;16.80;99.90;;;;;;4725050;30;20048;-89
2022/04/17 12:47:36;;;;;;;5.65;3.92;;;;;;;;;;4737303;30;20060;-90
2022/04/17 12:50:07;;;;;;;5.28;4.18;;;18.90;99.90;;;;;;4717557;30;20044;-89
2022/04/17 12:52:33;;;;;;;13.38;4.47;;;;;;;;;;4730604;30;20052;-91
2022/04/17 12:55:10;;;;;;;6.18;4.68;;;16.80;99.90;;;;;;4723707;30;20506;-90
2022/04/17 12:57:36;;;;;;;5.20;4.43;;;;;;;;;;4720893;30;20146;-88
2022/04/17 13:00:23;;;;;;;5.32;4.70;;;17.00;99.90;;;;;;4721652;30;20185;-89
2022/04/17 13:02:49;;;;;;;5.07;4.38;;;;;;;;;;4719306;30;20064;-89
2022/04/17 13:05:23;;;;;;;4.90;4.40;;;17.00;99.90;;;;;;4716313;30;20061;-88
2022/04/17 13:07:49;;;;;;;5.35;4.50;;;;;;;;;;4719408;30;20083;-88
2022/04/17 13:10:15;;;;;;;5.28;4.00;;;;;;;;;;4721631;30;20059;-91
2022/04/17 13:12:47;;;;;;;6.82;4.90;;;17.30;99.90;;;;;;4724482;30;20507;-91
2022/04/17 13:15:15;;;;;;;12.85;4.75;;;;;;;;;;4734134;30;20507;-90
2022/04/17 13:17:51;;;;;;;5.93;4.72;;;17.40;99.90;;;;;;4735053;30;20091;-91
2022/04/17 13:20:22;;;;;;;6.72;5.55;;;17.70;99.90;;;;;;4737107;30;20066;-89
2022/04/17 13:22:48;;;;;;;5.22;4.55;;;;;;;;;;4735319;30;20533;-90
2022/04/17 13:25:15;;;;;;;5.15;4.25;;;17.80;99.90;;;;;;4721413;30;20518;-90
2022/04/17 13:27:41;;;;;;;6.53;4.90;;;;;;;;;;4729472;30;20565;-89
2022/04/17 13:30:09;;;;;;;5.68;4.75;;;17.80;99.90;;;;;;4708865;30;20118;-91
2022/04/17 13:32:35;;;;;;;5.20;4.25;;;;;;;;;;4721920;30;20052;-90
2022/04/17 13:35:01;;;;;;;5.47;4.78;;;;;;;;;;4735557;30;20088;-88
2022/04/17 13:40:12;;;;;;;6.13;5.05;;;;;;;;;;4752620;30;20049;-89
2022/04/17 13:42:38;;;;;;;8.77;5.78;;;;;;;;;;4715663;30;20139;-91
2022/04/17 13:45:10;;;;;;;6.38;4.75;;;18.00;99.90;;;;;;4714827;30;20052;-91
2022/04/17 13:47:37;;;;;;;7.05;4.82;;;18.10;99.90;;;;;;4721097;30;20490;-92
2022/04/17 13:50:04;;;;;;;10.38;5.35;;;18.10;99.90;;;;;;4736121;30;20403;-90
2022/04/17 13:52:31;;;;;;;4.68;4.03;;;18.10;99.90;;;;;;4721285;30;20055;-90
2022/04/17 13:54:57;;;;;;;6.38;5.18;;;;;;;;;;4736022;30;20140;-92
2022/04/17 13:57:23;;;;;;;5.85;4.57;;;;;;;;;;4715522;30;20131;-92
2022/04/17 13:59:49;;;;;;;5.43;4.32;;;;;;;;;;4719285;30;20491;-93
2022/04/17 14:02:16;;;;;;;4.80;4.25;;;;;;;;;;4718304;30;20143;-92
2022/04/17 14:04:42;;;;;;;6.10;4.55;;;;;;;;;;4708450;30;20052;-90
2022/04/17 14:07:09;;;;;;;6.47;4.40;;;18.40;99.90;;;;;;4721645;30;20060;-91
2022/04/17 14:09:39;;;;;;;4.43;3.70;;;18.40;99.90;;;;;;4719348;30;20494;-90
2022/04/17 14:12:08;;;;;;;4.47;3.70;;;18.60;99.90;;;;;;4743569;30;20064;-91
2022/04/17 14:14:38;;;;;;;4.90;4.18;;;18.60;99.90;;;;;;4734138;30;20055;-89
2022/04/17 14:17:04;;;;;;;4.07;3.58;;;;;;;;;;4730405;30;20569;-90
2022/04/17 14:19:30;;;;;;;5.85;4.40;;;;;;;;;;4719793;30;20048;-89
2022/04/17 14:21:56;;;;;;;8.60;4.43;;;;;;;;;;4766355;30;20051;-90
2022/04/17 14:24:26;;;;;;;4.43;4.03;;;;;;;;;;4725166;30;20558;-90
2022/04/17 14:26:53;;;;;;;5.25;3.88;;;;;;;;;;4744520;30;20142;-89
2022/04/17 14:29:19;;;;;;;3.45;3.15;;;;;;;;;;4754002;30;20053;-88
2022/04/17 14:31:48;;;;;;;4.63;3.97;;;19.20;99.90;;;;;;4711505;30;20057;-92
2022/04/17 14:34:20;;;;;;;5.38;4.50;;;19.20;99.90;;;;;;4748898;30;20066;-93
2022/04/17 14:36:49;;;;;;;4.75;4.03;;;19.20;99.90;;;;;;4740281;30;20056;-90
2022/04/17 14:39:39;;;;;;;5.28;4.50;;;19.40;99.90;;;;;;4724304;30;20052;-91
2022/04/17 14:42:05;;;;;;;11.23;4.45;;;;;;;;;;4736810;30;20135;-90
2022/04/17 14:44:46;;;;;;;4.00;3.60;;;19.20;99.90;;;;;;4725217;30;20075;-88
2022/04/17 14:47:15;;;;;;;6.78;3.70;;;19.40;99.90;;;;;;4739374;30;20063;-88
2022/04/17 14:50:00;;;;;;;5.35;4.32;;;;;;;;;;4755356;30;20093;-90
2022/04/17 14:55:07;;;;;;;4.65;3.75;;;;;;;;;;4772044;24;20056;-94
2022/04/17 14:57:33;;;;;;;5.32;4.15;;;;;;;;;;4723804;30;20497;-88
2022/04/17 15:00:02;;;;;;;6.05;4.47;;;;;;;;;;4725684;30;20048;-89
2022/04/17 15:02:45;;;;;;;5.30;3.88;;;19.70;99.50;;;;;;4756972;30;20056;-92
2022/04/17 15:05:41;;;;;;;6.55;3.97;;;19.70;99.40;;;;;;4777673;30;20117;-94
2022/04/17 15:08:08;;;;;;;17.33;4.35;;;;;;;;;;4729649;30;20095;-91
2022/04/17 15:10:43;;;;;;;7.25;4.53;;;20.00;99.60;;;;;;4725011;30;20095;-93
2022/04/17 15:18:51;;;;;;;6.45;4.20;;;19.90;99.90;;;;;;4912714;24;20575;-92
2022/04/17 15:25:48;;;;;;;4.65;4.20;;;20.10;99.00;;;;;;4693961;30;20115;-95
2022/04/17 15:28:22;;;;;;;5.68;4.45;;;20.20;97.50;;;;;;4730798;24;20060;-93
2022/04/17 15:31:42;;;;;;;4.90;4.03;;;20.10;99.90;;;;;;4749604;30;20098;-92
2022/04/17 15:49:26;;;;;;;7.63;4.80;;;20.30;98.70;;;;;;4756410;30;20056;-91
2022/04/17 15:52:16;;;;;;;4.82;3.90;;;20.20;98.20;;;;;;4759923;30;20060;-90
2022/04/17 16:00:03;;;;;;;3.70;3.33;;;;;;;;;;4490829;24;20067;-94
2022/04/17 16:02:44;;;;;;;4.90;3.88;;;19.90;98.40;;;;;;4739639;30;20055;-91
2022/04/17 16:05:25;;;;;;;5.00;4.50;;;20.70;99.90;;;;;;4752842;30;20052;-91
2022/04/17 16:08:16;;;;;;;3.85;3.45;;;20.80;98.40;;;;;;4738677;30;20065;-93
2022/04/17 16:10:43;;;;;;;5.45;3.95;;;;;;;;;;4741412;30;20098;-88
2022/04/17 16:13:49;;;;;;;5.35;3.80;;;21.00;98.50;;;;;;4733802;30;20048;-93
2022/04/17 16:16:40;;;;;;;7.53;3.53;;;20.90;99.90;;;;;;4684999;30;20109;-93
2022/04/17 16:19:54;;;;;;;5.47;4.55;;;21.00;98.60;;;;;;4686182;30;20583;-91
2022/04/17 16:25:16;;;;;;;3.67;3.25;;;20.90;98.30;;;;;;4929991;24;20607;-90
2022/04/17 16:27:52;;;;;;;3.50;3.20;;;20.80;98.70;;;;;;4742981;30;20139;-91
2022/04/17 16:30:34;;;;;;;5.13;3.58;;;21.00;98.70;;;;;;4747449;30;20498;-89
2022/04/17 16:33:00;;;;;;;8.50;3.95;;;;;;;;;;4756391;30;20422;-94
2022/04/17 16:35:30;;;;;;;7.53;3.15;;;;;;;;;;4757669;30;20177;-93
2022/04/17 16:37:56;;;;;;;4.82;3.38;;;;;;;;;;4745057;30;20090;-96
2022/04/17 16:40:25;;;;;;;4.72;2.90;;;21.10;99.20;;;;;;4740283;30;20039;-89
2022/04/17 16:43:19;;;;;;;3.58;3.28;;;21.00;98.30;;;;;;4741931;30;20579;-92
2022/04/17 16:45:48;;;;;;;2.70;2.50;;;;;;;;;;4722634;30;20073;-95
2022/04/17 16:48:17;;;;;;;5.35;2.97;;;;;;;;;;4721117;30;20156;-89
2022/04/17 16:50:43;;;;;;;9.05;3.00;;;;;;;;;;4728440;30;20128;-89
2022/04/17 16:53:10;;;;;;;4.53;2.63;;;;;;;;;;4721383;30;20060;-91
2022/04/17 17:00:57;;;;;;;3.10;2.42;;;;;;;;;;4736653;30;20095;-91
2022/04/17 17:03:23;;;;;;;3.03;2.50;;;;;;;;;;4727811;30;20068;-92
2022/04/17 17:05:51;;;;;;;6.95;2.47;;;;;;;;;;4715383;30;20116;-90
2022/04/17 17:08:17;;;;;;;2.40;2.20;;;;;;;;;;4733153;30;20055;-93
2022/04/17 17:11:54;;;;;;;3.83;2.20;;;20.00;99.10;;;;;;4725417;30;20083;-94
2022/04/17 17:14:20;;;;;;;3.67;2.67;;;;;;;;;;4703316;30;20080;-94
2022/04/17 17:16:46;;;;;;;4.95;2.65;;;;;;;;;;4722332;30;20441;-94
2022/04/17 17:19:14;;;;;;;2.65;2.28;;;;;;;;;;4740510;30;20056;-89
2022/04/17 17:21:40;;;;;;;6.90;3.10;;;;;;;;;;4710125;30;20459;-95
2022/04/17 17:24:06;;;;;;;4.53;2.15;;;;;;;;;;4718439;30;20049;-95
2022/04/17 17:26:33;;;;;;;2.83;2.20;;;;;;;;;;4715512;30;20065;-93
2022/04/17 17:29:15;;;;;;;7.97;2.20;;;19.60;99.60;;;;;;4706026;30;20088;-91
2022/04/17 17:32:04;;;;;;;3.20;2.15;;;19.70;99.70;;;;;;4706485;30;20057;-95
2022/04/17 17:34:30;;;;;;;2.95;2.60;;;;;;;;;;4704566;30;20147;-93
2022/04/17 17:36:56;;;;;;;2.70;1.83;;;;;;;;;;4722785;30;20049;-90
2022/04/17 17:39:22;;;;;;;8.10;5.40;;;;;;;;;;4704643;30;20065;-91
2022/04/17 17:41:49;;;;;;;7.70;3.85;;;;;;;;;;4720552;30;20418;-95
2022/04/17 17:44:15;;;;;;;4.03;1.92;;;;;;;;;;4721082;30;20056;-94
2022/04/17 17:47:04;;;;;;;;;;;;;;;;;;;;;
2022/04/17 17:49:33;;;;;;;12.75;3.13;;;19.00;99.90;;;;;;4706257;30;20140;-92
2022/04/17 17:52:09;;;;;;;2.25;2.05;;;19.00;99.90;;;;;;4706009;30;20052;-93
2022/04/17 17:54:36;;;;;;;8.23;2.55;;;;;;;;;;4715267;30;20041;-91
2022/04/17 17:57:02;;;;;;;2.40;2.20;;;;;;;;;;4737407;30;20086;-93
2022/04/17 17:59:32;;;;;;;2.58;1.92;;;;;;;;;;4706334;30;20053;-90
2022/04/17 18:02:11;;;;;;;2.67;2.05;;;18.40;99.90;;;;;;4722481;30;20418;-93